Time;durP1;ratioP1;P1;durP2;ratioP2;P2;SDS_P1;SDS_P2;PMS_P1;PMS_P2;Temp;Humidity;BMP_temperature;BMP_pressure;BME280_temperature;BME280_humidity;BME280_pressure;Samples;Min_cycle;Max_cycle;Signal;HPM_P1;HPM_P2
2022/04/13 00:00:09;;;;;;;0.30;0.20;;;;;;;8.76;63.85;95637.09;5096086;28;20530;-52
2022/04/13 00:02:38;;;;;;;0.33;0.27;;;;;;;8.80;63.43;95644.25;5095609;28;20456;-52
2022/04/13 00:05:07;;;;;;;0.30;0.20;;;;;;;8.79;65.06;95645.31;5095433;28;20875;-52
2022/04/13 00:07:38;;;;;;;0.30;0.20;;;;;;;8.73;64.81;95643.66;5095843;28;20818;-52
2022/04/13 00:10:08;;;;;;;0.40;0.37;;;;;;;8.72;65.59;95639.44;5095298;28;20476;-52
2022/04/13 00:12:36;;;;;;;0.30;0.20;;;;;;;8.70;64.70;95633.59;5095534;28;20948;-52
2022/04/13 00:15:07;;;;;;;0.30;0.20;;;;;;;8.64;66.53;95631.97;5094604;28;20435;-52
2022/04/13 00:17:37;;;;;;;0.30;0.30;;;;;;;8.61;65.55;95629.81;5095574;28;20463;-52
2022/04/13 00:20:07;;;;;;;0.30;0.20;;;;;;;8.60;65.21;95633.50;5095004;28;20467;-52
2022/04/13 00:22:35;;;;;;;0.40;0.40;;;;;;;8.57;67.05;95630.56;5095149;28;20913;-52
2022/04/13 00:25:06;;;;;;;0.30;0.20;;;;;;;8.49;66.50;95628.34;5095282;28;20912;-52
2022/04/13 00:27:34;;;;;;;0.40;0.37;;;;;;;8.26;68.95;95637.31;5095059;28;20482;-52
2022/04/13 00:30:03;;;;;;;0.30;0.20;;;;;;;8.34;68.22;95623.72;5095266;28;20467;-52
2022/04/13 00:32:33;;;;;;;0.30;0.20;;;;;;;7.96;67.36;95568.31;5094853;28;20516;-52
2022/04/13 00:35:04;;;;;;;0.30;0.20;;;;;;;8.35;67.10;95617.38;5095122;28;20786;-52
2022/04/13 00:37:34;;;;;;;0.30;0.20;;;;;;;8.01;68.18;95584.22;5095067;28;20432;-52
2022/04/13 00:40:02;;;;;;;0.30;0.20;;;;;;;8.19;67.83;95624.31;5094014;28;20476;-52
2022/04/13 00:42:32;;;;;;;0.33;0.27;;;;;;;7.66;71.67;95622.28;5094819;28;20460;-52
2022/04/13 00:45:00;;;;;;;0.33;0.27;;;;;;;7.99;70.64;95625.91;5094620;28;20436;-52
2022/04/13 00:47:29;;;;;;;0.30;0.20;;;;;;;8.18;70.09;95632.47;5094840;28;20489;-52
2022/04/13 00:49:57;;;;;;;0.50;0.40;;;;;;;8.27;66.44;95623.88;5094858;28;20460;-52
2022/04/13 00:52:28;;;;;;;0.30;0.20;;;;;;;8.35;65.42;95627.94;5094574;28;20424;-52
2022/04/13 00:54:58;;;;;;;0.30;0.20;;;;;;;7.71;69.77;95563.53;5095050;28;20457;-52
2022/04/13 00:57:31;;;;;;;0.30;0.20;;;;;;;8.16;69.59;95626.63;5094689;28;20436;-52
2022/04/13 01:00:05;;;;;;;0.30;0.20;;;;;;;8.21;68.30;95622.22;5094321;28;20417;-52
2022/04/13 01:02:36;;;;;;;0.30;0.20;;;;;;;8.07;69.72;95623.63;5094780;28;20532;-52
2022/04/13 01:05:07;;;;;;;0.30;0.20;;;;;;;8.14;70.17;95634.00;5094634;28;20816;-52
2022/04/13 01:07:37;;;;;;;0.30;0.20;;;;;;;8.10;71.02;95636.34;5093859;28;20913;-52
2022/04/13 01:10:07;;;;;;;0.30;0.20;;;;;;;7.94;72.02;95631.91;5093753;28;20467;-52
2022/04/13 01:12:35;;;;;;;0.30;0.20;;;;;;;7.95;71.85;95630.88;5094427;28;20436;-52
2022/04/13 01:15:06;;;;;;;0.30;0.20;;;;;;;7.87;70.40;95620.72;5094110;28;20429;-52
2022/04/13 01:17:38;;;;;;;0.30;0.30;;;;;;;7.81;72.55;95616.44;5094009;28;20433;-52
2022/04/13 01:20:07;;;;;;;0.40;0.30;;;;;;;7.76;74.16;95631.41;5093980;28;20909;-52
2022/04/13 01:22:37;;;;;;;0.30;0.20;;;;;;;7.54;73.41;95595.22;5093959;28;20448;-52
2022/04/13 01:25:07;;;;;;;0.30;0.20;;;;;;;7.72;73.89;95625.00;5093815;28;20432;-52
2022/04/13 01:27:35;;;;;;;0.30;0.20;;;;;;;7.78;73.64;95622.19;5094197;28;20866;-52
2022/04/13 01:30:07;;;;;;;0.30;0.20;;;;;;;7.60;73.40;95619.84;5093922;28;20460;-52
2022/04/13 01:32:36;;;;;;;0.30;0.20;;;;;;;7.61;72.02;95606.41;5094072;28;20447;-52
2022/04/13 01:35:06;;;;;;;0.30;0.20;;;;;;;7.59;74.75;95620.88;5093601;28;20523;-52
2022/04/13 01:37:35;;;;;;;0.30;0.20;;;;;;;7.01;76.88;95576.50;5094100;28;20424;-52
2022/04/13 01:40:06;;;;;;;0.73;0.73;;;;;;;7.42;76.80;95625.38;5093520;28;20952;-52
2022/04/13 01:42:35;;;;;;;0.30;0.20;;;;;;;7.49;75.81;95624.16;5093577;28;20421;-52
2022/04/13 01:45:03;;;;;;;0.30;0.20;;;;;;;7.15;75.36;95548.00;5093149;28;20431;-52
2022/04/13 01:47:32;;;;;;;0.40;0.30;;;;;;;7.51;75.36;95627.34;5093073;28;20464;-52
2022/04/13 01:50:00;;;;;;;0.30;0.20;;;;;;;7.56;74.94;95632.69;5092648;28;20431;-52
2022/04/13 01:52:29;;;;;;;0.30;0.20;;;;;;;7.32;75.28;95619.94;5093591;28;20493;-52
2022/04/13 01:54:57;;;;;;;0.30;0.20;;;;;;;7.37;74.97;95617.38;5093048;28;20493;-52
2022/04/13 01:57:27;;;;;;;0.30;0.20;;;;;;;6.97;78.92;95609.66;5092534;28;21011;-52
2022/04/13 01:59:55;;;;;;;0.30;0.20;;;;;;;6.67;82.84;95607.31;5093472;28;20424;-52
2022/04/13 02:02:24;;;;;;;0.50;0.30;;;;;;;7.05;80.08;95614.53;5092714;28;20471;-51
2022/04/13 02:04:53;;;;;;;0.30;0.20;;;;;;;7.24;78.22;95609.81;5093059;28;20498;-52
2022/04/13 02:07:21;;;;;;;0.30;0.20;;;;;;;7.11;79.17;95618.06;5093224;28;20420;-52
2022/04/13 02:09:50;;;;;;;0.30;0.20;;;;;;;7.11;79.45;95620.69;5092807;28;20472;-52
2022/04/13 02:12:18;;;;;;;0.30;0.20;;;;;;;7.15;78.25;95617.34;5092776;28;20436;-52
2022/04/13 02:14:48;;;;;;;0.30;0.20;;;;;;;7.09;79.79;95623.56;5093424;28;20450;-52
2022/04/13 02:17:16;;;;;;;0.30;0.20;;;;;;;6.96;80.41;95624.66;5092737;28;20465;-52
2022/04/13 02:19:45;;;;;;;0.30;0.20;;;;;;;7.03;81.17;95624.53;5092181;28;20421;-52
2022/04/13 02:22:13;;;;;;;0.30;0.20;;;;;;;6.60;82.18;95624.31;5092574;28;20519;-52
2022/04/13 02:25:02;;;;;;;0.30;0.20;;;;;;;6.70;81.69;95601.59;5092331;28;20451;-52
2022/04/13 02:27:30;;;;;;;0.30;0.30;;;;;;;6.96;79.62;95610.69;5092658;28;20901;-52
2022/04/13 02:30:00;;;;;;;0.30;0.20;;;;;;;7.02;79.09;95617.66;5092453;28;20489;-52
2022/04/13 02:32:28;;;;;;;6.10;0.30;;;;;;;6.98;81.42;95619.19;5092514;28;21078;-52
2022/04/13 02:34:57;;;;;;;0.30;0.20;;;;;;;7.01;79.28;95611.56;5092112;28;20462;-52
2022/04/13 02:37:25;;;;;;;0.30;0.20;;;;;;;6.82;81.29;95604.16;5092464;28;20429;-52
2022/04/13 02:39:53;;;;;;;0.40;0.30;;;;;;;6.77;81.34;95604.88;5092819;28;20801;-52
2022/04/13 02:42:22;;;;;;;0.30;0.20;;;;;;;6.91;81.05;95618.50;5092259;28;20476;-52
2022/04/13 02:44:50;;;;;;;0.37;0.27;;;;;;;6.56;83.46;95607.38;5092123;28;20420;-52
2022/04/13 02:47:20;;;;;;;0.30;0.20;;;;;;;6.79;80.92;95607.25;5092334;28;20462;-52
2022/04/13 02:49:48;;;;;;;0.40;0.30;;;;;;;6.77;83.36;95625.94;5092589;28;20455;-52
2022/04/13 02:52:17;;;;;;;0.30;0.20;;;;;;;6.70;83.95;95624.50;5092269;28;20464;-52
2022/04/13 02:54:45;;;;;;;0.30;0.20;;;;;;;6.62;83.79;95619.59;5091217;28;20504;-52
2022/04/13 02:57:13;;;;;;;0.30;0.20;;;;;;;6.62;86.01;95622.22;5092225;28;20523;-52
2022/04/13 02:59:46;;;;;;;0.37;0.20;;;;;;;6.15;89.25;95622.41;5092202;28;20448;-52
2022/04/13 03:02:15;;;;;;;0.30;0.20;;;;;;;6.09;92.43;95633.09;5092014;28;21210;-53
2022/04/13 03:04:46;;;;;;;0.30;0.20;;;;;;;5.79;90.71;95552.50;5091350;28;20443;-52
2022/04/13 03:07:17;;;;;;;0.47;0.43;;;;;;;6.25;89.08;95629.69;5092057;28;20428;-52
2022/04/13 03:09:46;;;;;;;0.70;0.40;;;;;;;5.96;93.29;95631.53;5091033;28;20537;-52
2022/04/13 03:12:14;;;;;;;0.30;0.20;;;;;;;6.03;91.87;95616.41;5092199;28;20514;-52
2022/04/13 03:14:43;;;;;;;0.40;0.30;;;;;;;6.49;87.54;95627.78;5091985;28;20424;-53
2022/04/13 03:17:11;;;;;;;0.30;0.20;;;;;;;6.09;90.60;95631.25;5091915;28;20428;-53
2022/04/13 03:19:40;;;;;;;0.53;0.53;;;;;;;6.18;91.68;95629.84;5092251;28;20482;-53
2022/04/13 03:22:09;;;;;;;0.30;0.20;;;;;;;6.03;91.31;95602.44;5092101;28;20464;-52
2022/04/13 03:24:44;;;;;;;0.30;0.30;;;;;;;6.07;90.59;95608.84;5091833;28;20432;-52
2022/04/13 03:27:12;;;;;;;0.30;0.20;;;;;;;6.18;89.31;95621.94;5092081;28;20877;-52
2022/04/13 03:29:41;;;;;;;0.30;0.20;;;;;;;6.23;88.97;95635.22;5091763;28;20424;-52
2022/04/13 03:32:09;;;;;;;0.30;0.20;;;;;;;6.19;89.87;95633.28;5094770;28;20516;-52
2022/04/13 03:34:38;;;;;;;0.30;0.20;;;;;;;6.19;89.04;95641.19;5096091;28;20416;-51
2022/04/13 03:37:06;;;;;;;0.30;0.20;;;;;;;6.23;88.28;95637.84;5096292;28;20440;-51
2022/04/13 03:39:36;;;;;;;0.40;0.30;;;;;;;6.28;88.85;95642.41;5095797;28;20478;-52
2022/04/13 03:42:05;;;;;;;0.30;0.20;;;;;;;6.46;86.35;95646.69;5095549;28;21186;-51
2022/04/13 03:44:33;;;;;;;0.30;0.30;;;;;;;6.37;86.10;95647.06;5095719;28;20424;-51
2022/04/13 03:47:02;;;;;;;3.60;2.63;;;;;;;6.07;88.18;95616.75;5094220;28;20435;-52
2022/04/13 03:49:30;;;;;;;1.27;0.97;;;;;;;6.28;88.47;95659.00;5095927;28;20420;-52
2022/04/13 03:51:59;;;;;;;0.30;0.27;;;;;;;5.98;90.81;95660.22;5095811;28;20452;-51
2022/04/13 03:54:27;;;;;;;0.30;0.20;;;;;;;5.68;95.54;95665.59;5095436;28;20454;-51
2022/04/13 03:56:57;;;;;;;0.40;0.40;;;;;;;5.85;94.96;95663.91;5095445;28;20467;-52
2022/04/13 03:59:26;;;;;;;0.40;0.40;;;;;;;5.83;96.71;95673.00;5095381;28;20519;-51
2022/04/13 04:01:55;;;;;;;0.40;0.40;;;;;;;5.73;96.79;95681.50;5095409;28;20525;-52
2022/04/13 04:04:23;;;;;;;0.30;0.20;;;;;;;5.77;98.05;95672.91;5095013;28;21020;-52
2022/04/13 04:06:51;;;;;;;0.30;0.20;;;;;;;5.84;97.43;95678.06;5095353;28;20420;-52
2022/04/13 04:09:20;;;;;;;0.87;0.87;;;;;;;5.87;96.88;95684.72;5095133;28;20444;-52
2022/04/13 04:11:48;;;;;;;0.40;0.30;;;;;;;5.97;96.79;95682.31;5094878;28;20476;-52
2022/04/13 04:14:18;;;;;;;0.30;0.20;;;;;;;6.16;93.67;95676.66;5095099;28;20493;-52
2022/04/13 04:16:46;;;;;;;0.30;0.20;;;;;;;6.10;94.28;95679.41;5095342;28;21026;-52
2022/04/13 04:19:15;;;;;;;2.20;0.30;;;;;;;6.15;94.07;95675.03;5095198;28;20936;-52
2022/04/13 04:21:44;;;;;;;0.90;0.90;;;;;;;6.20;93.63;95671.72;5094394;28;20436;-52
2022/04/13 04:24:12;;;;;;;0.40;0.30;;;;;;;6.17;93.55;95672.97;5094892;28;20477;-52
2022/04/13 04:26:42;;;;;;;0.30;0.20;;;;;;;6.27;93.26;95685.56;5095122;28;20460;-52
2022/04/13 04:29:11;;;;;;;0.30;0.20;;;;;;;6.12;95.26;95686.03;5094529;28;20451;-52
2022/04/13 04:31:53;;;;;;;0.30;0.20;;;;;;;6.10;93.89;95682.84;5094547;28;20471;-52
2022/04/13 04:34:23;;;;;;;0.40;0.37;;;;;;;6.23;93.30;95682.59;5094665;28;20430;-53
2022/04/13 04:36:52;;;;;;;0.80;0.80;;;;;;;6.30;93.22;95693.78;5094998;28;20440;-51
2022/04/13 04:39:20;;;;;;;0.80;0.80;;;;;;;6.48;89.95;95698.06;5094495;28;20442;-52
2022/04/13 04:41:49;;;;;;;0.40;0.30;;;;;;;6.73;86.23;95688.00;5094072;28;20527;-51
2022/04/13 04:44:17;;;;;;;0.33;0.30;;;;;;;7.12;82.32;95691.63;5093788;28;20428;-51
2022/04/13 04:46:47;;;;;;;0.40;0.40;;;;;;;7.07;82.71;95688.88;5094102;28;20870;-51
2022/04/13 04:49:15;;;;;;;0.40;0.40;;;;;;;6.73;87.00;95685.38;5093494;28;20431;-52
2022/04/13 04:51:44;;;;;;;0.33;0.23;;;;;;;6.71;88.98;95692.72;5094121;28;20804;-52
2022/04/13 04:54:12;;;;;;;0.60;0.60;;;;;;;6.77;91.01;95693.63;5094306;28;20457;-53
2022/04/13 04:56:41;;;;;;;0.50;0.50;;;;;;;6.93;85.67;95695.50;5094150;28;20999;-51
2022/04/13 04:59:09;;;;;;;2.70;0.63;;;;;;;6.38;91.66;95685.53;5094169;28;20416;-51
2022/04/13 05:01:37;;;;;;;1.47;0.73;;;;;;;6.50;94.82;95709.19;5094008;28;20494;-51
2022/04/13 05:04:08;;;;;;;0.37;0.27;;;;;;;6.60;91.72;95698.84;5094101;28;20558;-51
2022/04/13 05:06:36;;;;;;;1.20;0.70;;;;;;;6.28;97.15;95689.78;5093730;28;20468;-52
2022/04/13 05:09:05;;;;;;;1.27;1.00;;;;;;;6.48;96.82;95692.81;5093844;28;20460;-51
2022/04/13 05:11:33;;;;;;;0.93;0.93;;;;;;;6.20;99.93;95698.03;5093918;28;20464;-51
2022/04/13 05:14:01;;;;;;;0.50;0.50;;;;;;;5.98;100.00;95704.94;5094539;28;20428;-52
2022/04/13 05:16:30;;;;;;;1.30;1.00;;;;;;;6.33;97.94;95705.69;5093813;28;21007;-51
2022/04/13 05:18:58;;;;;;;3.70;3.00;;;;;;;6.16;99.09;95700.34;5094098;28;20423;-52
2022/04/13 05:21:28;;;;;;;0.40;0.20;;;;;;;6.66;96.18;95702.34;5093619;28;20432;-51
2022/04/13 05:23:57;;;;;;;1.13;0.67;;;;;;;6.64;93.49;95707.88;5093680;28;20468;-51
2022/04/13 05:26:25;;;;;;;2.93;1.53;;;;;;;6.60;94.29;95711.22;5093961;28;20782;-51
2022/04/13 05:28:54;;;;;;;2.67;1.70;;;;;;;6.78;93.04;95693.38;5093860;28;20420;-51
2022/04/13 05:31:22;;;;;;;0.40;0.37;;;;;;;7.07;90.14;95703.91;5094047;28;20863;-51
2022/04/13 05:33:51;;;;;;;1.43;0.50;;;;;;;7.23;86.34;95703.94;5093573;28;20481;-51
2022/04/13 05:36:19;;;;;;;0.93;0.60;;;;;;;6.84;90.59;95705.63;5093492;28;20443;-51
2022/04/13 05:38:49;;;;;;;0.50;0.40;;;;;;;7.50;86.58;95709.38;5093480;28;20420;-51
2022/04/13 05:41:18;;;;;;;5.10;0.40;;;;;;;6.83;90.94;95708.50;5093395;28;20467;-51
2022/04/13 05:43:46;;;;;;;0.40;0.40;;;;;;;6.98;88.55;95703.50;5093927;28;20463;-51
2022/04/13 05:46:14;;;;;;;0.40;0.30;;;;;;;6.87;90.67;95696.44;5093321;28;20425;-51
2022/04/13 05:48:43;;;;;;;1.90;1.40;;;;;;;7.03;91.13;95704.38;5093561;28;20508;-51
2022/04/13 05:51:13;;;;;;;0.40;0.33;;;;;;;6.63;86.18;95560.63;5093018;28;20432;-51
2022/04/13 05:53:41;;;;;;;0.40;0.33;;;;;;;8.61;77.07;95706.44;5092573;28;20472;-51
2022/04/13 05:56:11;;;;;;;1.10;0.60;;;;;;;7.73;80.86;95709.19;5093479;28;20496;-52
2022/04/13 05:58:39;;;;;;;0.50;0.30;;;;;;;7.52;78.89;95643.97;5093360;28;20436;-52
2022/04/13 06:01:08;;;;;;;0.60;0.33;;;;;;;7.69;78.73;95700.94;5093166;28;20868;-51
2022/04/13 06:03:36;;;;;;;0.77;0.77;;;;;;;6.99;79.50;95570.69;5093019;28;20987;-51
2022/04/13 06:06:11;;;;;;;0.83;0.77;;;;;;;8.14;77.33;95690.25;5092946;28;20519;-51
2022/04/13 06:08:39;;;;;;;1.33;0.80;;;;;;;8.67;76.76;95697.53;5093155;28;20466;-51
2022/04/13 06:11:07;;;;;;;0.70;0.70;;;;;;;8.76;72.81;95640.53;5092597;28;20503;-51
2022/04/13 06:13:37;;;;;;;4.57;1.43;;;;;;;8.92;70.56;95697.78;5092786;28;20909;-52
2022/04/13 06:16:07;;;;;;;0.50;0.50;;;;;;;9.29;70.28;95703.16;5092681;28;20440;-53
2022/04/13 06:18:35;;;;;;;0.40;0.40;;;;;;;9.07;69.48;95705.06;5092985;28;20441;-51
2022/04/13 06:21:04;;;;;;;1.03;0.77;;;;;;;9.26;70.87;95708.16;5092628;28;20458;-52
2022/04/13 06:23:36;;;;;;;1.03;1.03;;;;;;;9.70;68.30;95683.09;5092593;28;20902;-51
2022/04/13 06:26:05;;;;;;;0.33;0.27;;;;;;;11.10;60.28;95692.78;5092206;28;20836;-51
2022/04/13 06:28:33;;;;;;;0.50;0.40;;;;;;;10.96;58.98;95702.25;5092297;28;20519;-51
2022/04/13 06:31:03;;;;;;;0.30;0.30;;;;;;;11.51;58.09;95693.56;5092608;28;20456;-51
2022/04/13 06:33:31;;;;;;;1.17;1.03;;;;;;;11.50;56.41;95681.38;5092237;28;20417;-50
2022/04/13 06:36:01;;;;;;;0.40;0.33;;;;;;;12.54;53.05;95696.63;5092311;28;21005;-50
2022/04/13 06:38:29;;;;;;;0.43;0.37;;;;;;;12.04;51.59;95695.69;5092542;28;20497;-49
2022/04/13 06:40:58;;;;;;;0.43;0.43;;;;;;;11.99;50.76;95589.44;5092147;28;20437;-50
2022/04/13 06:43:26;;;;;;;0.40;0.40;;;;;;;11.14;52.33;95647.91;5092539;28;20907;-50
2022/04/13 06:45:54;;;;;;;0.83;0.83;;;;;;;11.96;52.66;95679.50;5091405;28;20468;-50
2022/04/13 06:48:24;;;;;;;0.40;0.30;;;;;;;11.93;50.79;95695.97;5092474;28;20412;-50
2022/04/13 06:50:53;;;;;;;5.60;0.50;;;;;;;12.35;50.48;95688.44;5091993;28;20471;-50
2022/04/13 06:53:21;;;;;;;1.03;0.93;;;;;;;12.49;50.72;95694.00;5092087;28;20893;-50
2022/04/13 06:55:50;;;;;;;1.90;0.73;;;;;;;13.62;46.54;95675.25;5092354;28;20516;-50
2022/04/13 06:58:19;;;;;;;0.80;0.43;;;;;;;13.74;45.29;95655.16;5091722;28;20432;-50
2022/04/13 07:00:47;;;;;;;0.50;0.30;;;;;;;11.45;47.37;95512.31;5091574;28;20484;-50
2022/04/13 07:03:16;;;;;;;0.40;0.30;;;;;;;13.63;46.87;95687.50;5092056;28;20515;-49
2022/04/13 07:05:46;;;;;;;0.40;0.30;;;;;;;14.29;43.29;95687.69;5091775;28;20428;-51
2022/04/13 07:08:15;;;;;;;0.33;0.23;;;;;;;15.22;42.37;95675.31;5092104;28;20809;-52
2022/04/13 07:13:29;;;;;;;0.50;0.50;;;;;;;16.09;37.81;95680.88;5092072;28;20523;-52
2022/04/13 07:15:57;;;;;;;0.40;0.30;;;;;;;16.28;39.56;95686.97;5092050;28;20428;-51
2022/04/13 07:18:30;;;;;;;0.70;0.70;;;;;;;15.82;37.11;95684.28;5092137;28;20507;-52
2022/04/13 07:20:59;;;;;;;0.40;0.30;;;;;;;15.35;37.94;95678.34;5091640;28;20479;-51
2022/04/13 07:23:28;;;;;;;0.53;0.30;;;;;;;16.42;36.52;95679.72;5091732;28;20436;-53
2022/04/13 07:25:56;;;;;;;0.40;0.30;;;;;;;18.05;34.82;95665.16;5091948;28;20428;-53
2022/04/13 07:28:25;;;;;;;3.03;0.60;;;;;;;17.58;34.75;95677.28;5091686;28;20516;-53
2022/04/13 07:30:59;;;;;;;0.83;0.30;;;;;;;17.46;34.36;95681.56;5091615;28;20432;-54
2022/04/13 07:33:27;;;;;;;0.40;0.30;;;;;;;18.08;35.41;95671.78;5091505;28;20956;-54
2022/04/13 07:35:56;;;;;;;0.40;0.30;;;;;;;17.53;35.08;95671.28;5091504;28;20960;-55
2022/04/13 07:38:26;;;;;;;0.40;0.30;;;;;;;17.56;33.73;95673.31;5091895;28;20429;-55
2022/04/13 07:40:54;;;;;;;0.40;0.37;;;;;;;17.80;33.54;95673.03;5091558;28;20768;-55
2022/04/13 07:43:22;;;;;;;0.53;0.40;;;;;;;17.50;33.84;95672.66;5091874;28;20474;-56
2022/04/13 07:45:51;;;;;;;0.43;0.30;;;;;;;16.83;35.24;95677.06;5091650;28;20480;-56
2022/04/13 07:48:19;;;;;;;0.40;0.30;;;;;;;17.40;34.55;95656.81;5091437;28;20448;-55
2022/04/13 07:50:48;;;;;;;0.40;0.30;;;;;;;18.75;32.26;95664.34;5091337;28;20431;-55
2022/04/13 07:53:17;;;;;;;0.40;0.30;;;;;;;20.06;30.34;95649.53;5091672;28;20456;-55
2022/04/13 07:55:47;;;;;;;0.40;0.33;;;;;;;18.49;31.96;95661.59;5091296;28;20439;-55
2022/04/13 07:58:16;;;;;;;0.60;0.30;;;;;;;18.65;32.08;95659.25;5090886;28;20453;-55
2022/04/13 08:00:45;;;;;;;0.50;0.50;;;;;;;19.23;31.48;95635.50;5091264;28;20523;-55
2022/04/13 08:03:13;;;;;;;15.73;0.60;;;;;;;18.17;32.39;95633.16;5091389;28;20558;-57
2022/04/13 08:06:02;;;;;;;0.43;0.40;;;;;;;18.31;32.67;95646.50;5091327;28;20969;-55
2022/04/13 08:08:31;;;;;;;0.50;0.30;;;;;;;17.66;33.99;95472.84;5091355;28;20428;-56
2022/04/13 08:11:01;;;;;;;0.80;0.80;;;;;;;18.43;32.85;95654.75;5090966;28;20915;-56
2022/04/13 08:13:29;;;;;;;0.70;0.60;;;;;;;17.94;33.35;95602.13;5091334;28;20436;-56
2022/04/13 08:16:16;;;;;;;0.90;0.77;;;;;;;18.68;32.82;95482.22;5091552;28;20433;-55
2022/04/13 08:18:45;;;;;;;1.70;0.37;;;;;;;20.01;31.70;95642.41;5093156;28;20518;-54
2022/04/13 08:21:13;;;;;;;0.40;0.30;;;;;;;21.25;30.14;95637.41;5094948;28;20475;-55
2022/04/13 08:23:41;;;;;;;0.40;0.30;;;;;;;21.31;28.36;95619.13;5094998;28;20420;-54
2022/04/13 08:26:11;;;;;;;0.37;0.23;;;;;;;21.21;28.94;95639.19;5094954;28;20512;-54
2022/04/13 08:28:40;;;;;;;0.50;0.40;;;;;;;22.07;28.48;95593.38;5094762;28;21000;-54
2022/04/13 08:31:09;;;;;;;0.30;0.20;;;;;;;21.06;28.67;95477.28;5094904;28;20432;-54
2022/04/13 08:33:38;;;;;;;0.60;0.40;;;;;;;20.86;29.99;95478.84;5094216;28;20436;-54
2022/04/13 08:36:06;;;;;;;1.47;1.37;;;;;;;21.07;30.48;95629.81;5094747;28;20442;-54
2022/04/13 08:38:36;;;;;;;0.60;0.50;;;;;;;20.57;30.38;95600.09;5094635;28;20512;-54
2022/04/13 08:41:14;;;;;;;0.60;0.40;;;;;;;21.99;28.25;95599.63;5094637;28;20425;-54
2022/04/13 08:43:48;;;;;;;0.50;0.30;;;;;;;21.28;27.72;95611.69;5094579;28;20952;-54
2022/04/13 08:46:24;;;;;;;0.50;0.50;;;;;;;21.06;28.63;95607.44;5094476;28;20493;-54
2022/04/13 08:48:55;;;;;;;0.77;0.77;;;;;;;22.64;29.90;95596.00;5094345;28;20425;-53
2022/04/13 08:51:43;;;;;;;1.37;0.40;;;;;;;21.72;27.66;95537.38;5094279;28;20443;-52
2022/04/13 08:54:16;;;;;;;0.60;0.50;;;;;;;21.68;28.04;95595.81;5094408;28;20429;-55
2022/04/13 08:56:48;;;;;;;0.40;0.30;;;;;;;23.10;26.13;95574.97;5094195;28;20442;-53
2022/04/13 08:59:46;;;;;;;0.53;0.40;;;;;;;23.52;25.91;95581.66;5093491;28;21047;-52
2022/04/13 09:02:23;;;;;;;0.30;0.20;;;;;;;23.13;27.04;95579.72;5094235;28;20425;-53
2022/04/13 09:04:56;;;;;;;0.40;0.30;;;;;;;22.65;26.94;95573.28;5094170;28;20460;-53
2022/04/13 09:07:29;;;;;;;0.40;0.30;;;;;;;24.22;25.24;95569.22;5093880;28;20527;-53
2022/04/13 09:10:01;;;;;;;0.40;0.33;;;;;;;23.03;27.80;95559.34;5094012;28;20468;-53
2022/04/13 09:12:33;;;;;;;0.47;0.47;;;;;;;22.97;26.40;95565.34;5093895;28;20519;-53
2022/04/13 09:15:03;;;;;;;0.50;0.30;;;;;;;22.71;27.51;95568.44;5093737;28;20471;-53
2022/04/13 09:17:32;;;;;;;0.40;0.40;;;;;;;22.91;25.62;95564.78;5093696;28;20432;-53
2022/04/13 09:20:01;;;;;;;0.60;0.60;;;;;;;22.34;26.12;95548.72;5093594;28;20440;-53
2022/04/13 09:22:31;;;;;;;0.40;0.30;;;;;;;24.60;24.60;95550.38;5094044;28;20435;-53
2022/04/13 09:25:01;;;;;;;0.50;0.50;;;;;;;24.23;25.42;95548.34;5093469;28;20468;-54
2022/04/13 09:27:32;;;;;;;0.60;0.60;;;;;;;23.36;25.74;95556.47;5093767;28;20507;-54
2022/04/13 09:30:02;;;;;;;0.50;0.50;;;;;;;24.33;26.55;95548.59;5093270;28;20477;-54
2022/04/13 09:32:32;;;;;;;0.70;0.70;;;;;;;25.05;24.34;95536.28;5093501;28;20436;-54
2022/04/13 09:35:01;;;;;;;0.40;0.30;;;;;;;24.81;24.36;95538.47;5093459;28;20542;-54
2022/04/13 09:37:30;;;;;;;0.30;0.30;;;;;;;24.66;23.76;95531.94;5093701;28;20485;-54
2022/04/13 09:40:00;;;;;;;0.63;0.63;;;;;;;24.99;23.32;95535.03;5093449;28;20914;-54
2022/04/13 09:42:29;;;;;;;0.40;0.30;;;;;;;24.56;25.64;95524.34;5093407;28;20465;-54
2022/04/13 09:45:02;;;;;;;0.40;0.30;;;;;;;25.74;22.76;95523.72;5093548;28;20468;-54
2022/04/13 09:47:33;;;;;;;0.57;0.30;;;;;;;26.04;22.51;95513.78;5093741;28;20428;-54
2022/04/13 09:50:02;;;;;;;0.57;0.40;;;;;;;26.30;21.61;95499.47;5093381;28;20443;-54
2022/04/13 09:52:39;;;;;;;0.40;0.33;;;;;;;25.56;23.06;95514.47;5093417;28;20416;-54
2022/04/13 09:55:08;;;;;;;0.60;0.50;;;;;;;26.59;24.34;95506.91;5093415;28;20424;-54
2022/04/13 09:57:37;;;;;;;0.60;0.60;;;;;;;26.03;23.40;95493.22;5092978;28;20486;-54
2022/04/13 10:00:09;;;;;;;0.40;0.30;;;;;;;25.95;22.54;95498.88;5093006;28;20436;-54
2022/04/13 10:02:39;;;;;;;5.93;0.40;;;;;;;26.09;21.74;95401.31;5093487;28;20487;-54
2022/04/13 10:05:09;;;;;;;0.50;0.50;;;;;;;27.02;22.33;95490.03;5093054;28;20468;-54
2022/04/13 10:07:38;;;;;;;0.50;0.40;;;;;;;25.51;24.48;95493.84;5092831;28;20901;-54
2022/04/13 10:10:23;;;;;;;0.40;0.30;;;;;;;25.75;24.60;95479.16;5092824;28;20529;-54
2022/04/13 10:12:55;;;;;;;0.60;0.60;;;;;;;23.57;27.08;95494.81;5092985;28;20432;-54
2022/04/13 10:15:25;;;;;;;0.40;0.30;;;;;;;24.85;25.30;95482.41;5092725;28;20409;-54
2022/04/13 10:17:59;;;;;;;0.50;0.40;;;;;;;25.23;24.75;95414.59;5092908;28;20445;-54
2022/04/13 10:20:47;;;;;;;3.50;0.70;;;;;;;25.07;24.37;95477.06;5092662;28;20474;-54
2022/04/13 10:23:16;;;;;;;0.60;0.50;;;;;;;26.08;26.42;95462.22;5091829;28;20428;-55
2022/04/13 10:25:45;;;;;;;0.67;0.30;;;;;;;26.92;24.20;95454.53;5092687;28;20464;-54
2022/04/13 10:28:21;;;;;;;0.40;0.30;;;;;;;25.46;25.26;95414.63;5092429;28;20437;-54
2022/04/13 10:30:51;;;;;;;0.40;0.40;;;;;;;26.17;23.28;95458.13;5093138;28;20759;-54
2022/04/13 10:33:19;;;;;;;0.40;0.30;;;;;;;27.63;22.45;95446.03;5092587;28;20830;-54
2022/04/13 10:35:49;;;;;;;0.80;0.60;;;;;;;25.72;22.91;95455.44;5092528;28;20428;-54
2022/04/13 10:38:17;;;;;;;0.40;0.30;;;;;;;26.13;23.87;95446.44;5092238;28;20498;-54
2022/04/13 10:40:48;;;;;;;0.40;0.30;;;;;;;26.59;24.18;95440.88;5091977;28;20432;-54
2022/04/13 10:43:18;;;;;;;0.50;0.30;;;;;;;27.73;21.89;95433.66;5091423;28;20483;-54
2022/04/13 10:45:48;;;;;;;0.30;0.20;;;;;;;28.80;21.78;95436.81;5092017;28;20507;-54
2022/04/13 10:48:27;;;;;;;0.60;0.60;;;;;;;25.74;22.89;95442.28;5092435;28;20542;-54
2022/04/13 10:50:58;;;;;;;0.30;0.20;;;;;;;27.33;21.54;95428.19;5092082;28;20423;-54
2022/04/13 10:53:30;;;;;;;0.47;0.30;;;;;;;26.10;22.27;95425.41;5092418;28;20433;-54
2022/04/13 10:56:01;;;;;;;0.37;0.30;;;;;;;25.86;23.24;95428.50;5092256;28;20449;-54
2022/04/13 10:58:44;;;;;;;0.50;0.40;;;;;;;26.32;23.46;95410.22;5092351;28;20842;-54
2022/04/13 11:01:15;;;;;;;0.30;0.30;;;;;;;25.24;25.11;95419.66;5091994;28;20424;-54
2022/04/13 11:03:47;;;;;;;0.47;0.47;;;;;;;25.16;24.89;95414.47;5091825;28;20511;-54
2022/04/13 11:06:15;;;;;;;0.30;0.30;;;;;;;25.97;25.24;95413.16;5091651;28;20536;-54
2022/04/13 11:08:48;;;;;;;0.60;0.60;;;;;;;25.17;23.25;95408.66;5091857;28;20527;-54
2022/04/13 11:11:19;;;;;;;0.37;0.33;;;;;;;26.82;22.60;95382.53;5091735;28;20488;-54
2022/04/13 11:13:48;;;;;;;0.50;0.50;;;;;;;28.12;21.86;95395.88;5091610;28;20927;-54
2022/04/13 11:16:19;;;;;;;0.70;0.70;;;;;;;28.63;20.31;95393.09;5092144;28;20849;-54
2022/04/13 11:19:22;;;;;;;0.67;0.67;;;;;;;28.02;20.77;95391.91;5092053;28;20437;-54
2022/04/13 11:22:10;;;;;;;0.77;0.67;;;;;;;28.85;20.49;95387.34;5091687;28;20904;-54
2022/04/13 11:24:40;;;;;;;0.80;0.80;;;;;;;26.69;22.20;95388.59;5091354;28;20485;-54
2022/04/13 11:27:10;;;;;;;0.50;0.40;;;;;;;25.48;22.89;95404.19;5091481;28;20504;-54
2022/04/13 11:29:44;;;;;;;0.40;0.40;;;;;;;25.88;22.52;95388.97;5091367;28;20941;-54
2022/04/13 11:32:15;;;;;;;0.43;0.30;;;;;;;28.00;21.13;95387.97;5091545;28;20420;-54
2022/04/13 11:34:48;;;;;;;0.40;0.40;;;;;;;27.26;21.29;95377.19;5089801;28;20509;-54
2022/04/13 11:37:17;;;;;;;0.40;0.30;;;;;;;26.63;22.93;95374.53;5091252;28;21000;-53
2022/04/13 11:39:51;;;;;;;0.40;0.30;;;;;;;26.23;23.91;95364.31;5091939;28;20412;-54
2022/04/13 11:42:52;;;;;;;0.50;0.50;;;;;;;26.70;21.52;95362.94;5091581;28;20440;-53
2022/04/13 11:45:23;;;;;;;0.47;0.37;;;;;;;28.00;20.69;95352.56;5091351;28;20433;-53
2022/04/13 11:48:03;;;;;;;0.50;0.40;;;;;;;28.74;21.08;95337.41;5091652;28;20519;-54
2022/04/13 11:50:36;;;;;;;0.53;0.40;;;;;;;27.69;23.45;95351.94;5091718;28;20782;-54
2022/04/13 11:53:06;;;;;;;0.47;0.47;;;;;;;27.17;20.64;95343.28;5094159;28;20867;-54
2022/04/13 11:55:43;;;;;;;0.50;0.30;;;;;;;28.27;22.14;95337.56;5095747;28;20432;-55